createdAt,value
2019-04-14T00:01:52.506Z,76.32
2019-04-14T00:04:24.838Z,76.23
2019-04-14T00:06:57.306Z,76.26
2019-04-14T00:09:29.740Z,76.29
2019-04-14T00:12:04.704Z,76.17
2019-04-14T00:14:36.196Z,76.23
2019-04-14T00:17:08.786Z,76.13
2019-04-14T00:19:41.345Z,76.37
2019-04-14T00:22:14.167Z,76.44
2019-04-14T00:24:46.748Z,76.68
2019-04-14T00:27:21.226Z,76.79
2019-04-14T00:29:55.266Z,76.72
2019-04-14T00:32:27.520Z,76.81
2019-04-14T00:34:59.778Z,76.77
2019-04-14T00:37:32.113Z,76.92
2019-04-14T00:40:04.401Z,76.69
2019-04-14T00:42:36.691Z,76.88
2019-04-14T00:45:09.157Z,76.75
2019-04-14T00:47:51.966Z,76.92
2019-04-14T00:50:16.759Z,76.91
2019-04-14T00:52:50.652Z,77.00
2019-04-14T00:55:23.013Z,77.10
2019-04-14T00:57:55.329Z,77.16
2019-04-14T01:00:27.662Z,77.43
2019-04-14T01:03:00.404Z,77.44
2019-04-14T01:05:34.547Z,77.25
2019-04-14T01:08:07.392Z,77.52
2019-04-14T01:10:39.705Z,77.44
2019-04-14T01:13:13.171Z,77.63
2019-04-14T01:15:57.045Z,77.42
2019-04-14T01:18:21.221Z,77.28
2019-04-14T01:20:55.692Z,77.53
2019-04-14T01:23:28.362Z,77.57
2019-04-14T01:26:01.095Z,77.83
2019-04-14T01:28:33.462Z,77.63
2019-04-14T01:31:07.672Z,77.60
2019-04-14T01:33:40.208Z,77.71
2019-04-14T01:36:12.794Z,77.60
2019-04-14T01:38:45.290Z,77.45
2019-04-14T01:41:17.526Z,77.41
2019-04-14T01:43:49.983Z,77.46
2019-04-14T01:46:27.659Z,77.57
2019-04-14T01:48:56.456Z,77.63
2019-04-14T01:51:28.911Z,77.63
2019-04-14T01:54:02.313Z,77.57
2019-04-14T01:56:34.611Z,77.54
2019-04-14T01:59:06.815Z,77.67
2019-04-14T02:01:39.051Z,77.54
2019-04-14T02:04:11.683Z,77.61
2019-04-14T02:06:44.186Z,77.61
2019-04-14T02:09:16.516Z,77.97
2019-04-14T02:11:49.374Z,77.68
2019-04-14T02:14:21.714Z,77.85
2019-04-14T02:16:57.093Z,77.73
2019-04-14T02:19:28.541Z,77.82
2019-04-14T02:22:00.833Z,77.70
2019-04-14T02:24:33.454Z,77.80
2019-04-14T02:27:05.865Z,77.75
2019-04-14T02:29:38.421Z,77.89
2019-04-14T02:35:13.312Z,77.98
2019-04-14T02:37:57.942Z,77.96
2019-04-14T02:45:35.507Z,78.06
2019-04-14T02:53:20.914Z,77.96
2019-04-14T02:55:48.921Z,78.08
2019-04-14T03:00:58.311Z,77.88
2019-04-14T03:06:05.318Z,78.01
2019-04-14T03:11:24.499Z,77.96
2019-04-14T03:13:45.903Z,78.20
2019-04-14T03:16:29.757Z,78.37
2019-04-14T03:21:26.341Z,78.18
2019-04-14T03:24:03.622Z,78.37
2019-04-14T03:26:38.805Z,78.38
2019-04-14T03:29:08.116Z,78.25
2019-04-14T03:37:20.167Z,78.43
2019-04-14T03:39:26.823Z,78.53
2019-04-14T03:42:01.612Z,78.38
2019-04-14T03:44:37.241Z,78.61
2019-04-14T03:47:13.603Z,78.72
2019-04-14T03:52:21.891Z,78.60
2019-04-14T03:54:46.902Z,78.72
2019-04-14T03:56:59.835Z,78.83
2019-04-14T03:59:32.417Z,78.94
2019-04-14T04:02:05.354Z,79.09
2019-04-14T04:04:38.086Z,78.92
2019-04-14T04:07:10.519Z,79.07
2019-04-14T04:09:43.322Z,79.37
2019-04-14T04:12:16.026Z,79.44
2019-04-14T04:14:48.588Z,79.31
2019-04-14T04:17:21.266Z,79.43
2019-04-14T04:19:53.626Z,79.44
2019-04-14T04:22:26.089Z,79.72
2019-04-14T04:24:58.599Z,79.81
2019-04-14T04:27:31.003Z,79.78
2019-04-14T04:30:03.776Z,79.67
2019-04-14T04:32:36.342Z,79.32
2019-04-14T04:35:08.628Z,78.90
2019-04-14T04:37:43.336Z,78.60
2019-04-14T04:40:16.138Z,78.63
2019-04-14T04:42:48.854Z,78.42
2019-04-14T04:45:21.355Z,78.38
2019-04-14T04:47:53.697Z,78.25
2019-04-14T04:50:26.099Z,78.48
2019-04-14T04:52:58.385Z,78.63
2019-04-14T04:55:30.695Z,78.83
2019-04-14T04:58:03.409Z,78.83
2019-04-14T05:00:35.722Z,78.83
2019-04-14T05:03:08.192Z,78.91
2019-04-14T05:05:40.561Z,78.81
2019-04-14T05:08:13.084Z,78.90
2019-04-14T05:10:45.684Z,78.88
2019-04-14T05:13:18.431Z,78.92
2019-04-14T05:15:51.076Z,78.94
2019-04-14T05:18:24.518Z,78.74
2019-04-14T05:20:57.435Z,78.61
2019-04-14T05:23:30.011Z,78.55
2019-04-14T05:26:02.745Z,78.58
2019-04-14T05:28:35.322Z,78.46
2019-04-14T05:31:07.709Z,78.64
2019-04-14T05:33:40.407Z,78.46
2019-04-14T05:36:15.094Z,78.23
2019-04-14T05:38:47.675Z,77.80
2019-04-14T05:41:20.173Z,77.51
2019-04-14T05:43:57.109Z,77.32
2019-04-14T05:46:29.526Z,76.88
2019-04-14T05:49:02.254Z,76.42
2019-04-14T05:51:35.098Z,76.02
2019-04-14T05:54:07.800Z,76.00
2019-04-14T05:56:40.725Z,76.06
2019-04-14T05:59:13.504Z,76.06
2019-04-14T06:01:46.523Z,76.06
2019-04-14T06:04:19.935Z,75.54
2019-04-14T06:06:52.395Z,75.51
2019-04-14T06:09:24.733Z,75.31
2019-04-14T06:11:57.032Z,74.42
2019-04-14T06:14:29.367Z,73.44
2019-04-14T06:17:01.627Z,73.23
2019-04-14T06:19:37.964Z,72.15
2019-04-14T06:22:08.898Z,71.98
2019-04-14T06:24:41.154Z,71.25
2019-04-14T06:27:13.450Z,71.26
2019-04-14T06:29:45.692Z,70.56
2019-04-14T06:32:18.157Z,70.63
2019-04-14T06:34:51.662Z,70.33
2019-04-14T06:37:26.184Z,70.09
2019-04-14T06:39:58.217Z,70.09
2019-04-14T06:42:30.797Z,69.79
2019-04-14T06:45:03.084Z,69.14
2019-04-14T06:47:35.411Z,69.16
2019-04-14T06:50:07.720Z,69.25
2019-04-14T06:52:40.039Z,69.11
2019-04-14T06:55:12.456Z,69.00
2019-04-14T06:57:44.927Z,69.35
2019-04-14T07:00:17.081Z,68.59
2019-04-14T07:02:49.323Z,68.80
2019-04-14T07:05:22.154Z,67.58
2019-04-14T07:07:57.360Z,67.07
2019-04-14T07:10:28.546Z,67.52
2019-04-14T07:13:00.831Z,67.77
2019-04-14T07:15:33.106Z,68.09
2019-04-14T07:18:05.518Z,68.23
2019-04-14T07:20:37.735Z,68.46
2019-04-14T07:23:09.977Z,67.80
2019-04-14T07:25:42.317Z,67.36
2019-04-14T07:28:14.640Z,67.09
2019-04-14T07:30:47.192Z,67.54
2019-04-14T07:33:19.463Z,67.38
2019-04-14T07:35:51.722Z,67.39
2019-04-14T07:38:24.192Z,67.11
2019-04-14T07:40:56.417Z,67.55
2019-04-14T07:43:28.499Z,66.36
2019-04-14T07:46:00.825Z,65.74
2019-04-14T07:48:33.437Z,65.42
2019-04-14T07:51:05.755Z,65.24
2019-04-14T07:53:38.008Z,65.26
2019-04-14T07:56:10.275Z,65.66
2019-04-14T07:58:42.519Z,65.75
2019-04-14T08:01:15.194Z,65.17
2019-04-14T08:03:47.612Z,64.37
2019-04-14T08:06:19.811Z,62.68
2019-04-14T08:08:52.129Z,62.32
2019-04-14T08:11:24.557Z,61.79
2019-04-14T08:13:56.867Z,62.77
2019-04-14T08:16:29.188Z,62.74
2019-04-14T08:19:01.434Z,62.54
2019-04-14T08:21:33.727Z,62.46
2019-04-14T08:24:05.944Z,62.55
2019-04-14T08:26:38.506Z,61.78
2019-04-14T08:29:11.395Z,61.95
2019-04-14T08:31:43.767Z,62.39
2019-04-14T08:34:16.085Z,62.38
2019-04-14T08:36:49.028Z,62.33
2019-04-14T08:39:21.345Z,63.50
2019-04-14T08:41:53.879Z,63.01
2019-04-14T08:44:27.077Z,62.49
2019-04-14T08:46:59.371Z,62.26
2019-04-14T08:49:32.162Z,62.55
2019-04-14T08:52:05.628Z,62.46
2019-04-14T08:54:39.104Z,61.88
2019-04-14T08:57:11.415Z,61.56
2019-04-14T08:59:43.696Z,61.10
2019-04-14T09:02:15.947Z,60.52
2019-04-14T09:04:48.155Z,60.71
2019-04-14T09:07:20.622Z,60.75
2019-04-14T09:09:52.851Z,59.98
2019-04-14T09:12:25.138Z,59.37
2019-04-14T09:14:57.833Z,59.30
2019-04-14T09:17:31.341Z,58.31
2019-04-14T09:20:03.875Z,58.86
2019-04-14T09:22:36.373Z,59.14
2019-04-14T09:25:08.666Z,59.58
2019-04-14T09:27:40.979Z,59.44
2019-04-14T09:30:13.727Z,59.32
2019-04-14T09:32:46.215Z,58.52
2019-04-14T09:35:18.706Z,57.58
2019-04-14T09:37:51.345Z,56.93
2019-04-14T09:40:23.888Z,57.24
2019-04-14T09:42:57.760Z,55.69
2019-04-14T09:45:30.512Z,54.64
2019-04-14T09:48:03.264Z,53.60
2019-04-14T09:50:35.776Z,54.02
2019-04-14T09:53:08.115Z,53.81
2019-04-14T09:55:40.442Z,53.75
2019-04-14T09:58:12.955Z,52.59
2019-04-14T10:00:45.263Z,52.54
2019-04-14T10:03:17.610Z,51.50
2019-04-14T10:05:50.905Z,50.97
2019-04-14T10:08:23.482Z,50.88
2019-04-14T10:10:56.129Z,50.60
2019-04-14T10:13:28.375Z,49.99
2019-04-14T10:16:00.769Z,49.73
2019-04-14T10:18:33.068Z,50.36
2019-04-14T10:21:17.270Z,49.45
2019-04-14T10:23:41.989Z,49.85
2019-04-14T10:26:14.241Z,49.40
2019-04-14T10:28:46.728Z,48.70
2019-04-14T10:31:19.232Z,49.61
2019-04-14T10:33:52.651Z,47.79
2019-04-14T10:36:24.949Z,46.63
2019-04-14T10:38:58.096Z,44.37
2019-04-14T10:41:30.457Z,43.66
2019-04-14T10:44:02.835Z,44.98
2019-04-14T10:46:35.789Z,43.45
2019-04-14T10:49:08.153Z,44.67
2019-04-14T10:51:40.740Z,45.03
2019-04-14T10:54:13.247Z,42.61
2019-04-14T10:56:45.502Z,41.93
2019-04-14T10:59:17.932Z,41.47
2019-04-14T11:01:50.543Z,39.94
2019-04-14T11:04:24.081Z,38.76
2019-04-14T11:06:58.038Z,37.39
2019-04-14T11:09:30.273Z,38.65
2019-04-14T11:12:02.517Z,38.11
2019-04-14T11:14:35.031Z,37.72
2019-04-14T11:17:08.162Z,38.95
2019-04-14T11:19:40.517Z,38.36
2019-04-14T11:22:12.895Z,38.59
2019-04-14T11:24:46.028Z,36.71
2019-04-14T11:27:20.223Z,38.05
2019-04-14T11:29:54.127Z,37.58
2019-04-14T11:32:26.495Z,37.41
2019-04-14T11:34:58.746Z,36.37
2019-04-14T11:37:31.128Z,36.26
2019-04-14T11:40:03.433Z,36.58
2019-04-14T11:42:35.779Z,35.16
2019-04-14T11:45:08.145Z,34.35
2019-04-14T11:47:40.829Z,33.92
2019-04-14T11:50:13.105Z,30.90
2019-04-14T11:52:45.504Z,29.22
2019-04-14T11:55:17.936Z,27.90
2019-04-14T11:57:50.247Z,26.55
2019-04-14T12:00:24.983Z,24.65
2019-04-14T12:02:58.874Z,23.91
2019-04-14T12:05:31.156Z,23.92
2019-04-14T12:08:03.830Z,24.61
2019-04-14T12:10:36.202Z,24.86
2019-04-14T12:13:08.534Z,21.88
2019-04-14T12:15:40.925Z,21.72
2019-04-14T12:18:13.755Z,21.29
2019-04-14T12:20:46.607Z,21.05
2019-04-14T12:23:19.998Z,20.26
2019-04-14T12:26:04.647Z,21.16
2019-04-14T12:28:28.882Z,18.71
2019-04-14T12:31:02.029Z,18.33
2019-04-14T12:33:34.940Z,20.15
2019-04-14T12:36:09.009Z,19.55
2019-04-14T12:38:41.227Z,19.31
2019-04-14T12:41:13.471Z,19.90
2019-04-14T12:43:45.826Z,20.74
2019-04-14T12:46:18.639Z,19.97
2019-04-14T12:48:51.517Z,18.92
2019-04-14T12:51:24.336Z,18.92
2019-04-14T12:53:56.873Z,19.58
2019-04-14T12:56:29.727Z,20.50
2019-04-14T12:59:02.548Z,19.54
2019-04-14T13:01:35.425Z,18.47
2019-04-14T13:04:08.255Z,18.28
2019-04-14T13:06:41.198Z,17.70
2019-04-14T13:09:14.638Z,16.33
2019-04-14T13:11:47.862Z,14.93
2019-04-14T13:14:20.741Z,15.69
2019-04-14T13:16:53.631Z,16.39
2019-04-14T13:19:27.149Z,15.69
2019-04-14T13:22:02.497Z,15.72
2019-04-14T13:24:39.603Z,16.10
2019-04-14T13:27:13.678Z,15.76
2019-04-14T13:29:47.516Z,17.47
2019-04-14T13:32:35.918Z,18.57
2019-04-14T13:35:02.070Z,17.51
2019-04-14T13:37:35.382Z,16.47
2019-04-14T13:40:10.395Z,16.62
2019-04-14T13:42:43.897Z,15.94
2019-04-14T13:45:17.382Z,13.81
2019-04-14T13:47:50.497Z,13.62
2019-04-14T13:50:23.417Z,15.45
2019-04-14T13:52:56.301Z,15.99
2019-04-14T13:55:28.633Z,18.05
2019-04-14T13:58:01.075Z,19.21
2019-04-14T14:00:33.368Z,20.81
2019-04-14T14:03:05.696Z,22.17
2019-04-14T14:05:38.345Z,22.02
2019-04-14T14:08:15.518Z,20.94
2019-04-14T14:10:48.639Z,19.06
2019-04-14T14:13:21.465Z,17.96
2019-04-14T14:15:55.408Z,17.58
2019-04-14T14:18:33.236Z,18.37
2019-04-14T14:21:06.999Z,17.92
2019-04-14T14:23:41.045Z,16.11
2019-04-14T14:26:15.520Z,16.30
2019-04-14T14:28:49.840Z,17.98
2019-04-14T14:31:30.456Z,19.22
2019-04-14T14:34:03.619Z,20.82
2019-04-14T14:36:37.575Z,22.84
2019-04-14T14:39:10.819Z,22.76
2019-04-14T14:41:44.549Z,24.25
2019-04-14T14:44:19.072Z,24.25
2019-04-14T14:46:53.056Z,23.08
2019-04-14T14:49:26.534Z,22.74
2019-04-14T14:52:03.720Z,19.93
2019-04-14T14:54:41.417Z,18.09
2019-04-14T14:57:13.737Z,17.95
2019-04-14T14:59:49.693Z,19.07
2019-04-14T15:02:23.709Z,19.09
2019-04-14T15:04:56.199Z,18.16
2019-04-14T15:07:31.657Z,18.09
2019-04-14T15:10:05.135Z,18.39
2019-04-14T15:12:40.241Z,18.50
2019-04-14T15:15:19.586Z,18.42
2019-04-14T15:17:52.378Z,18.30
2019-04-14T15:20:26.193Z,20.47
2019-04-14T15:23:03.207Z,20.54
2019-04-14T15:25:37.477Z,21.37
2019-04-14T15:28:11.122Z,22.26
2019-04-14T15:30:44.085Z,22.67
2019-04-14T15:33:20.499Z,23.22
2019-04-14T15:36:02.229Z,23.63
2019-04-14T15:38:41.500Z,22.93
2019-04-14T15:41:14.455Z,21.36
2019-04-14T15:43:51.134Z,20.77
2019-04-14T15:46:27.459Z,19.73
2019-04-14T15:49:00.855Z,19.13
2019-04-14T15:51:33.169Z,18.16
2019-04-14T15:54:06.323Z,18.41
2019-04-14T15:56:39.774Z,17.59
2019-04-14T15:59:12.974Z,16.56
2019-04-14T16:01:47.382Z,18.01
2019-04-14T16:04:20.873Z,19.23
2019-04-14T16:06:54.681Z,19.05
2019-04-14T16:09:29.748Z,18.32
2019-04-14T16:12:03.224Z,17.52
2019-04-14T16:14:36.161Z,16.36
2019-04-14T16:17:10.069Z,16.51
2019-04-14T16:19:42.802Z,17.24
2019-04-14T16:22:16.341Z,19.20
2019-04-14T16:24:48.486Z,20.24
2019-04-14T16:27:20.791Z,20.92
2019-04-14T16:29:52.967Z,20.52
2019-04-14T16:32:25.372Z,19.78
2019-04-14T16:34:57.789Z,18.32
2019-04-14T16:37:30.051Z,18.32
2019-04-14T16:40:02.401Z,18.17
2019-04-14T16:42:35.421Z,19.75
2019-04-14T16:45:08.195Z,20.03
2019-04-14T16:47:42.068Z,20.96
2019-04-14T16:50:16.952Z,21.14
2019-04-14T16:52:49.367Z,22.53
2019-04-14T16:55:21.855Z,22.04
2019-04-14T16:57:54.083Z,22.66
2019-04-14T17:00:26.396Z,23.49
2019-04-14T17:02:59.173Z,23.78
2019-04-14T17:05:31.638Z,24.62
2019-04-14T17:08:03.989Z,25.54
2019-04-14T17:10:36.393Z,26.81
2019-04-14T17:13:08.869Z,27.22
2019-04-14T17:15:41.202Z,27.92
2019-04-14T17:18:14.264Z,28.65
2019-04-14T17:20:46.661Z,29.21
2019-04-14T17:23:18.940Z,30.49
2019-04-14T17:25:51.517Z,30.29
2019-04-14T17:28:24.024Z,31.28
2019-04-14T17:30:56.304Z,31.26
2019-04-14T17:33:28.826Z,31.45
2019-04-14T17:36:01.190Z,31.54
2019-04-14T17:38:35.106Z,31.64
2019-04-14T17:41:07.560Z,32.28
2019-04-14T17:43:39.944Z,32.99
2019-04-14T17:46:12.256Z,32.76
2019-04-14T17:48:44.567Z,33.21
2019-04-14T17:51:17.157Z,33.50
2019-04-14T17:53:49.646Z,33.65
2019-04-14T17:56:22.289Z,34.04
2019-04-14T17:58:55.697Z,34.18
2019-04-14T18:01:28.060Z,34.22
2019-04-14T18:04:00.795Z,34.28
2019-04-14T18:06:33.133Z,35.10
2019-04-14T18:09:05.408Z,35.06
2019-04-14T18:11:38.307Z,35.12
2019-04-14T18:14:10.695Z,35.46
2019-04-14T18:16:42.921Z,35.66
2019-04-14T18:19:18.422Z,35.98
2019-04-14T18:21:53.415Z,36.78
2019-04-14T18:24:27.745Z,36.98
2019-04-14T18:27:00.333Z,37.41
2019-04-14T18:29:32.717Z,37.65
2019-04-14T18:32:05.349Z,38.00
2019-04-14T18:34:38.089Z,38.26
2019-04-14T18:37:10.439Z,38.26
2019-04-14T18:39:42.686Z,38.75
2019-04-14T18:42:17.495Z,38.74
2019-04-14T18:44:50.823Z,38.79
2019-04-14T18:47:23.910Z,39.19
2019-04-14T18:49:59.185Z,39.56
2019-04-14T18:52:31.714Z,39.51
2019-04-14T18:55:04.167Z,39.95
2019-04-14T18:57:37.166Z,40.48
2019-04-14T19:00:09.969Z,40.96
2019-04-14T19:02:46.578Z,41.17
2019-04-14T19:05:22.018Z,41.60
2019-04-14T19:07:55.266Z,42.07
2019-04-14T19:10:28.529Z,42.62
2019-04-14T19:13:00.934Z,42.94
2019-04-14T19:15:33.328Z,42.87
2019-04-14T19:18:05.853Z,42.97
2019-04-14T19:20:38.947Z,43.54
2019-04-14T19:23:11.728Z,43.96
2019-04-14T19:25:45.450Z,44.20
2019-04-14T19:28:18.372Z,44.30
2019-04-14T19:30:50.931Z,44.80
2019-04-14T19:33:23.189Z,45.23
2019-04-14T19:35:55.715Z,45.41
2019-04-14T19:38:27.888Z,45.55
2019-04-14T19:41:00.300Z,45.67
2019-04-14T19:43:32.785Z,46.29
2019-04-14T19:46:07.318Z,46.11
2019-04-14T19:48:41.881Z,46.29
2019-04-14T19:51:16.636Z,46.28
2019-04-14T19:53:52.345Z,46.47
2019-04-14T19:56:25.192Z,46.79
2019-04-14T19:58:57.696Z,46.91
2019-04-14T20:01:30.209Z,46.90
2019-04-14T20:04:03.029Z,46.94
2019-04-14T20:06:38.214Z,47.34
2019-04-14T20:09:12.127Z,47.83
2019-04-14T20:11:44.429Z,47.55
2019-04-14T20:14:16.744Z,47.47
2019-04-14T20:16:49.109Z,47.71
2019-04-14T20:19:21.479Z,48.01
2019-04-14T20:21:53.819Z,47.85
2019-04-14T20:24:26.604Z,48.04
2019-04-14T20:26:58.762Z,48.16
2019-04-14T20:29:31.032Z,48.37
2019-04-14T20:32:03.279Z,48.37
2019-04-14T20:34:35.608Z,48.62
2019-04-14T20:37:07.913Z,48.55
2019-04-14T20:39:40.167Z,48.82
2019-04-14T20:42:12.549Z,48.44
2019-04-14T20:44:44.793Z,48.86
2019-04-14T20:47:17.193Z,48.75
2019-04-14T20:49:49.463Z,48.66
2019-04-14T20:52:21.688Z,49.30
2019-04-14T20:54:55.822Z,49.15
2019-04-14T20:57:28.431Z,49.31
2019-04-14T21:00:01.507Z,49.52
2019-04-14T21:02:35.537Z,49.37
2019-04-14T21:05:07.991Z,49.49
2019-04-14T21:07:40.472Z,49.76
2019-04-14T21:10:13.231Z,49.82
2019-04-14T21:12:45.809Z,49.88
2019-04-14T21:15:19.164Z,50.07
2019-04-14T21:17:51.727Z,49.95
2019-04-14T21:20:25.896Z,50.48
2019-04-14T21:23:00.270Z,50.36
2019-04-14T21:25:33.378Z,50.53
2019-04-14T21:28:05.671Z,50.79
2019-04-14T21:30:38.037Z,51.06
2019-04-14T21:33:10.232Z,51.40
2019-04-14T21:35:42.512Z,51.48
2019-04-14T21:38:14.849Z,51.50
2019-04-14T21:40:47.205Z,51.84
2019-04-14T21:43:19.471Z,51.71
2019-04-14T21:45:51.683Z,52.29
2019-04-14T21:48:28.594Z,52.11
2019-04-14T21:51:01.429Z,52.45
2019-04-14T21:53:35.635Z,52.70
2019-04-14T21:56:13.477Z,53.02
2019-04-14T21:58:42.649Z,53.19
2019-04-14T22:01:14.913Z,53.28
2019-04-14T22:03:48.501Z,53.29
2019-04-14T22:06:20.828Z,53.58
2019-04-14T22:08:53.093Z,53.68
2019-04-14T22:11:25.418Z,54.31
2019-04-14T22:13:57.890Z,54.29
2019-04-14T22:16:30.315Z,54.50
2019-04-14T22:19:03.049Z,54.69
2019-04-14T22:21:36.050Z,54.96
2019-04-14T22:24:08.461Z,55.27
2019-04-14T22:26:40.714Z,55.17
2019-04-14T22:29:13.066Z,55.31
2019-04-14T22:31:45.522Z,55.54
2019-04-14T22:34:17.817Z,55.60
2019-04-14T22:36:50.384Z,55.90
2019-04-14T22:39:22.847Z,55.54
2019-04-14T22:41:58.633Z,55.32
2019-04-14T22:44:31.191Z,55.05
2019-04-14T22:47:04.218Z,54.82
2019-04-14T22:49:37.176Z,54.34
2019-04-14T22:52:11.222Z,54.37
2019-04-14T22:54:44.713Z,54.11
2019-04-14T22:57:17.463Z,54.14
2019-04-14T22:59:49.947Z,54.46
2019-04-14T23:02:22.239Z,54.36
2019-04-14T23:04:54.468Z,54.35
2019-04-14T23:07:26.837Z,54.40
2019-04-14T23:09:59.300Z,54.50
2019-04-14T23:12:31.602Z,54.39
2019-04-14T23:15:03.911Z,54.85
2019-04-14T23:17:36.393Z,54.82
2019-04-14T23:20:09.009Z,54.90
2019-04-14T23:22:41.281Z,54.85
2019-04-14T23:25:13.571Z,55.01
2019-04-14T23:27:45.793Z,55.23
2019-04-14T23:30:18.112Z,55.04
2019-04-14T23:32:50.342Z,55.27
2019-04-14T23:35:22.583Z,55.42
2019-04-14T23:37:54.846Z,55.51
2019-04-14T23:40:27.359Z,55.45
2019-04-14T23:42:59.591Z,55.28
2019-04-14T23:45:31.842Z,55.27
2019-04-14T23:48:04.139Z,55.13
2019-04-14T23:50:36.395Z,55.19
2019-04-14T23:53:08.670Z,55.14
2019-04-14T23:55:40.894Z,55.17
2019-04-14T23:58:13.198Z,55.29
